Bay Breeze — WDE3988 — position and weather

sailwx.info

Track history (hours):
 
Tides and Currents Weather Stations Pressure Air Temp Water Temp Dewpoint Dewpoint Depression Visibility Wind Speed Wind Dir Waves Ship Positions

Bay Breeze

Owner: Harbor Bay Maritime Corporation, Alameda, CA. More information available from US FCC via Universal Licensing System and Coast Guard Vessel Documentation Center.

Last reported at 2018-Feb-20 21:30 UTC. Time now 2018-Feb-20 21:55 UTC.
Position N 37°48' W 122°24'.

Length 28 m; draft 1.6 m.

Type: Passenger vessel. MMSI: 366971280.

Date/timePositionNaut miles runAvg speedWind from/ knotsBaromVisibWave heightAir tempDewpointWater temp
2018-Feb-20 21:30N 37°48' W 122°24'0 0.0
2018-Feb-20 21:00N 37°48' W 122°24'0 0.0
2018-Feb-20 20:30N 37°48' W 122°24'0 0.0
2018-Feb-20 20:00N 37°48' W 122°24'0 0.0
2018-Feb-20 19:30N 37°48' W 122°24'0 0.0
2018-Feb-20 19:01N 37°48' W 122°24'0 0.0
2018-Feb-20 18:30N 37°48' W 122°24'0 0.0
2018-Feb-20 18:00N 37°48' W 122°24'0 0.0
2018-Feb-20 17:30N 37°48' W 122°24'0 0.9
2018-Feb-20 17:00N 37°48' W 122°24'714.5
2018-Feb-20 16:30N 37°44' W 122°15'714.4
2018-Feb-20 16:00N 37°48' W 122°24'714.9
2018-Feb-20 15:30N 37°44' W 122°15'714.6
2018-Feb-20 15:00N 37°48' W 122°24'714.6
2018-Feb-20 14:30N 37°44' W 122°15'0 0.1
2018-Feb-20 14:00N 37°44' W 122°15'815.3
2018-Feb-20 13:30N 37°48' W 122°24'  
2018-Feb-17 04:38N 37°48' W 122°24'0 0.7
2018-Feb-17 04:31N 37°48' W 122°24'815.3
2018-Feb-17 04:00N 37°44' W 122°15'714.0
2018-Feb-17 03:30N 37°48' W 122°23'713.7
2018-Feb-17 03:00N 37°44' W 122°16'713.8
2018-Feb-17 02:30N 37°48' W 122°23'714.0
2018-Feb-17 02:00N 37°44' W 122°16'714.4
2018-Feb-17 01:30N 37°48' W 122°23'714.6
2018-Feb-17 01:00N 37°44' W 122°15'714.6
2018-Feb-17 00:31N 37°48' W 122°24'0 0.0
2018-Feb-17 00:01N 37°48' W 122°24'0 0.0
2018-Feb-16 23:30N 37°48' W 122°24'1 2.1
2018-Feb-16 23:00N 37°47' W 122°22'4 7.3
2018-Feb-16 22:30N 37°47' W 122°18'5 9.3
2018-Feb-16 22:00N 37°48' W 122°24'1 2.6
2018-Feb-16 21:30N 37°49' W 122°25'0 0.0
2018-Feb-16 21:00N 37°49' W 122°25'0 0.0
2018-Feb-16 20:30N 37°49' W 122°25'0 0.0
2018-Feb-16 20:00N 37°49' W 122°25'0 0.0
2018-Feb-16 19:30N 37°49' W 122°25'1 1.7
2018-Feb-16 19:00N 37°48' W 122°24'0 0.0
2018-Feb-16 18:30N 37°48' W 122°24'0 0.0
2018-Feb-16 04:51N 37°48' W 122°24'0 0.9
2018-Feb-16 04:31N 37°48' W 122°24'815.1
2018-Feb-16 04:00N 37°44' W 122°15'714.7
2018-Feb-16 03:31N 37°48' W 122°24'714.6
2018-Feb-16 03:01N 37°44' W 122°15'714.6
2018-Feb-16 02:31N 37°48' W 122°24'714.5
2018-Feb-16 02:00N 37°44' W 122°16'714.5
2018-Feb-16 01:30N 37°48' W 122°24'714.7
2018-Feb-16 01:00N 37°44' W 122°15'714.7
2018-Feb-16 00:30N 37°48' W 122°24'0 0.0
2018-Feb-16 00:00N 37°48' W 122°24'0 0.0
2018-Feb-15 23:30N 37°48' W 122°24'1 1.2
2018-Feb-15 23:00N 37°48' W 122°23'4 8.5
2018-Feb-15 22:30N 37°48' W 122°17'5 9.6
2018-Feb-15 22:00N 37°48' W 122°24'1 2.1
2018-Feb-15 21:23N 37°49' W 122°25'0 0.0
2018-Feb-15 21:00N 37°49' W 122°25'0 0.0
2018-Feb-15 20:30N 37°49' W 122°25'0 0.0
2018-Feb-15 20:00N 37°49' W 122°25'1 2.6
2018-Feb-15 19:30N 37°48' W 122°24'510.6
2018-Feb-15 19:00N 37°48' W 122°17'510.4
2018-Feb-15 18:30N 37°48' W 122°24'1 2.7
2018-Feb-15 18:00N 37°49' W 122°25'0 0.0
2018-Feb-15 17:30N 37°49' W 122°25'1 2.7
2018-Feb-15 17:00N 37°48' W 122°23'714.5
2018-Feb-15 16:30N 37°44' W 122°15'714.7
2018-Feb-15 16:00N 37°48' W 122°24'714.6
2018-Feb-15 15:30N 37°44' W 122°15'714.5
2018-Feb-15 15:00N 37°48' W 122°24'714.7
2018-Feb-15 14:30N 37°44' W 122°15'3 5.4
2018-Feb-15 14:01N 37°45' W 122°19'510.2
2018-Feb-15 13:31N 37°48' W 122°24'0 0.0
2018-Feb-15 13:00N 37°48' W 122°24'0 0.0
2018-Feb-15 04:54N 37°48' W 122°24'614.1
2018-Feb-15 04:31N 37°45' W 122°18'1 2.3
2018-Feb-15 04:00N 37°44' W 122°17'4 8.4
2018-Feb-15 03:31N 37°47' W 122°21'2 4.6
2018-Feb-15 03:01N 37°45' W 122°19'1 2.6
2018-Feb-15 02:30N 37°46' W 122°20'1 2.3
2018-Feb-15 02:01N 37°45' W 122°19'4 7.4
2018-Feb-15 01:30N 37°48' W 122°23'713.2
2018-Feb-15 01:01N 37°44' W 122°15'714.5
2018-Feb-15 00:30N 37°48' W 122°24'0 0.0
2018-Feb-15 00:00N 37°48' W 122°24'0 0.0
2018-Feb-14 23:30N 37°48' W 122°24'1 2.1
2018-Feb-14 23:01N 37°48' W 122°22'4 7.3
2018-Feb-14 22:31N 37°48' W 122°18'5 9.3
2018-Feb-14 22:00N 37°48' W 122°23'1 2.6
2018-Feb-14 21:30N 37°49' W 122°25'0 0.0
2018-Feb-14 21:00N 37°49' W 122°25'0 0.0
2018-Feb-14 20:31N 37°49' W 122°25'0 0.0
2018-Feb-14 20:01N 37°49' W 122°25'1 2.6
2018-Feb-14 19:30N 37°48' W 122°24'510.6
2018-Feb-14 19:00N 37°48' W 122°17'510.6
2018-Feb-14 18:30N 37°48' W 122°24'1 2.6
2018-Feb-14 18:00N 37°49' W 122°25'0 0.0
2018-Feb-14 17:30N 37°49' W 122°25'1 2.6
2018-Feb-14 17:01N 37°48' W 122°24'714.6
2018-Feb-14 16:30N 37°44' W 122°15'714.5
2018-Feb-14 16:00N 37°48' W 122°24'714.7
2018-Feb-14 15:30N 37°44' W 122°15'714.6
2018-Feb-14 15:00N 37°48' W 122°24'714.6
2018-Feb-14 14:30N 37°44' W 122°15'1 2.4
2018-Feb-14 14:01N 37°44' W 122°17'712.6
2018-Feb-14 13:29N 37°48' W 122°24'0 0.0
2018-Feb-14 04:46N 37°48' W 122°24'1 2.4
2018-Feb-14 04:30N 37°48' W 122°23'714.4
2018-Feb-14 04:00N 37°44' W 122°15'714.6
2018-Feb-14 03:30N 37°48' W 122°24'714.6
2018-Feb-14 03:00N 37°44' W 122°15'714.5
2018-Feb-14 02:30N 37°48' W 122°23'714.3
2018-Feb-14 02:00N 37°44' W 122°16'714.5
2018-Feb-14 01:31N 37°48' W 122°24'714.6
2018-Feb-14 01:00N 37°44' W 122°15'714.6
2018-Feb-14 00:30N 37°48' W 122°24'0 0.0
2018-Feb-14 00:00N 37°48' W 122°24'0 0.0
2018-Feb-13 23:30N 37°48' W 122°24'0 0.5
2018-Feb-13 23:00N 37°48' W 122°23'5 9.2
2018-Feb-13 22:30N 37°48' W 122°17'5 9.8
2018-Feb-13 22:00N 37°48' W 122°24'1 2.6
2018-Feb-13 21:30N 37°49' W 122°25'0 0.0
2018-Feb-13 21:00N 37°49' W 122°25'0 0.0
2018-Feb-13 20:30N 37°49' W 122°25'0 0.0
2018-Feb-13 20:00N 37°49' W 122°25'1 2.7
2018-Feb-13 19:30N 37°48' W 122°23'510.3
2018-Feb-13 19:00N 37°48' W 122°17'510.3
2018-Feb-13 18:30N 37°48' W 122°24'1 2.7
2018-Feb-13 18:00N 37°49' W 122°25'0 0.0
2018-Feb-13 17:30N 37°49' W 122°25'1 2.6
2018-Feb-13 17:00N 37°48' W 122°24'714.6
2018-Feb-13 16:30N 37°44' W 122°15'714.6
2018-Feb-13 16:00N 37°48' W 122°24'714.5
2018-Feb-13 15:30N 37°44' W 122°15'714.5
2018-Feb-13 15:00N 37°48' W 122°24'714.7
2018-Feb-13 14:30N 37°44' W 122°16'8 0.9
2018-Feb-13 04:36N 37°49' W 122°25'0 0.0
2018-Feb-13 04:30N 37°49' W 122°25'917.2
2018-Feb-13 04:00N 37°44' W 122°15'714.2
2018-Feb-13 03:31N 37°48' W 122°23'612.9
2018-Feb-13 03:01N 37°44' W 122°16'510.3
2018-Feb-13 02:31N 37°47' W 122°22'4 8.7
2018-Feb-13 02:00N 37°45' W 122°17'511.0
2018-Feb-13 01:31N 37°48' W 122°23'713.7
2018-Feb-13 01:00N 37°44' W 122°15'714.6
2018-Feb-13 00:30N 37°48' W 122°24'0 0.0
2018-Feb-13 00:01N 37°48' W 122°24'0 0.0
2018-Feb-12 23:30N 37°48' W 122°24'0 0.0
2018-Feb-12 23:00N 37°48' W 122°24'510.0
2018-Feb-12 22:31N 37°48' W 122°17'5 9.9
2018-Feb-12 22:00N 37°48' W 122°24'1 2.6
2018-Feb-12 21:30N 37°49' W 122°25'0 0.0
2018-Feb-12 21:00N 37°49' W 122°25'0 0.0
2018-Feb-12 20:30N 37°49' W 122°25'  
Track history (hours):
 
Tides and Currents Weather Stations Pressure Air Temp Water Temp Dewpoint Dewpoint Depression Visibility Wind Speed Wind Dir Waves Ship Positions

Bay Breeze

Owner: Harbor Bay Maritime Corporation, Alameda, CA. More information available from US FCC via Universal Licensing System and Coast Guard Vessel Documentation Center.

Last reported at 2018-Feb-20 21:30 UTC. Time now 2018-Feb-20 21:55 UTC.
Position N 37°48' W 122°24'.

Length 28 m; draft 1.6 m.

Type: Passenger vessel. MMSI: 366971280.

Date/timePositionNaut miles runAvg speedWind from/ knotsBaromVisibWave heightAir tempDewpointWater temp
2018-Feb-20 21:30N 37°48' W 122°24'0 0.0
2018-Feb-20 21:00N 37°48' W 122°24'0 0.0
2018-Feb-20 20:30N 37°48' W 122°24'0 0.0
2018-Feb-20 20:00N 37°48' W 122°24'0 0.0
2018-Feb-20 19:30N 37°48' W 122°24'0 0.0
2018-Feb-20 19:01N 37°48' W 122°24'0 0.0
2018-Feb-20 18:30N 37°48' W 122°24'0 0.0
2018-Feb-20 18:00N 37°48' W 122°24'0 0.0
2018-Feb-20 17:30N 37°48' W 122°24'0 0.9
2018-Feb-20 17:00N 37°48' W 122°24'714.5
2018-Feb-20 16:30N 37°44' W 122°15'714.4
2018-Feb-20 16:00N 37°48' W 122°24'714.9
2018-Feb-20 15:30N 37°44' W 122°15'714.6
2018-Feb-20 15:00N 37°48' W 122°24'714.6
2018-Feb-20 14:30N 37°44' W 122°15'0 0.1
2018-Feb-20 14:00N 37°44' W 122°15'815.3
2018-Feb-20 13:30N 37°48' W 122°24'  
2018-Feb-17 04:38N 37°48' W 122°24'0 0.7
2018-Feb-17 04:31N 37°48' W 122°24'815.3
2018-Feb-17 04:00N 37°44' W 122°15'714.0
2018-Feb-17 03:30N 37°48' W 122°23'713.7
2018-Feb-17 03:00N 37°44' W 122°16'713.8
2018-Feb-17 02:30N 37°48' W 122°23'714.0
2018-Feb-17 02:00N 37°44' W 122°16'714.4
2018-Feb-17 01:30N 37°48' W 122°23'714.6
2018-Feb-17 01:00N 37°44' W 122°15'714.6
2018-Feb-17 00:31N 37°48' W 122°24'0 0.0
2018-Feb-17 00:01N 37°48' W 122°24'0 0.0
2018-Feb-16 23:30N 37°48' W 122°24'1 2.1
2018-Feb-16 23:00N 37°47' W 122°22'4 7.3
2018-Feb-16 22:30N 37°47' W 122°18'5 9.3
2018-Feb-16 22:00N 37°48' W 122°24'1 2.6
2018-Feb-16 21:30N 37°49' W 122°25'0 0.0
2018-Feb-16 21:00N 37°49' W 122°25'0 0.0
2018-Feb-16 20:30N 37°49' W 122°25'0 0.0
2018-Feb-16 20:00N 37°49' W 122°25'0 0.0
2018-Feb-16 19:30N 37°49' W 122°25'1 1.7
2018-Feb-16 19:00N 37°48' W 122°24'0 0.0
2018-Feb-16 18:30N 37°48' W 122°24'0 0.0
2018-Feb-16 04:51N 37°48' W 122°24'0 0.9
2018-Feb-16 04:31N 37°48' W 122°24'815.1
2018-Feb-16 04:00N 37°44' W 122°15'714.7
2018-Feb-16 03:31N 37°48' W 122°24'714.6
2018-Feb-16 03:01N 37°44' W 122°15'714.6
2018-Feb-16 02:31N 37°48' W 122°24'714.5
2018-Feb-16 02:00N 37°44' W 122°16'714.5
2018-Feb-16 01:30N 37°48' W 122°24'714.7
2018-Feb-16 01:00N 37°44' W 122°15'714.7
2018-Feb-16 00:30N 37°48' W 122°24'0 0.0
2018-Feb-16 00:00N 37°48' W 122°24'0 0.0
2018-Feb-15 23:30N 37°48' W 122°24'1 1.2
2018-Feb-15 23:00N 37°48' W 122°23'4 8.5
2018-Feb-15 22:30N 37°48' W 122°17'5 9.6
2018-Feb-15 22:00N 37°48' W 122°24'1 2.1
2018-Feb-15 21:23N 37°49' W 122°25'0 0.0
2018-Feb-15 21:00N 37°49' W 122°25'0 0.0
2018-Feb-15 20:30N 37°49' W 122°25'0 0.0
2018-Feb-15 20:00N 37°49' W 122°25'1 2.6
2018-Feb-15 19:30N 37°48' W 122°24'510.6
2018-Feb-15 19:00N 37°48' W 122°17'510.4
2018-Feb-15 18:30N 37°48' W 122°24'1 2.7
2018-Feb-15 18:00N 37°49' W 122°25'0 0.0
2018-Feb-15 17:30N 37°49' W 122°25'1 2.7
2018-Feb-15 17:00N 37°48' W 122°23'714.5
2018-Feb-15 16:30N 37°44' W 122°15'714.7
2018-Feb-15 16:00N 37°48' W 122°24'714.6
2018-Feb-15 15:30N 37°44' W 122°15'714.5
2018-Feb-15 15:00N 37°48' W 122°24'714.7
2018-Feb-15 14:30N 37°44' W 122°15'3 5.4
2018-Feb-15 14:01N 37°45' W 122°19'510.2
2018-Feb-15 13:31N 37°48' W 122°24'0 0.0
2018-Feb-15 13:00N 37°48' W 122°24'0 0.0
2018-Feb-15 04:54N 37°48' W 122°24'614.1
2018-Feb-15 04:31N 37°45' W 122°18'1 2.3
2018-Feb-15 04:00N 37°44' W 122°17'4 8.4
2018-Feb-15 03:31N 37°47' W 122°21'2 4.6
2018-Feb-15 03:01N 37°45' W 122°19'1 2.6
2018-Feb-15 02:30N 37°46' W 122°20'1 2.3
2018-Feb-15 02:01N 37°45' W 122°19'4 7.4
2018-Feb-15 01:30N 37°48' W 122°23'713.2
2018-Feb-15 01:01N 37°44' W 122°15'714.5
2018-Feb-15 00:30N 37°48' W 122°24'0 0.0
2018-Feb-15 00:00N 37°48' W 122°24'0 0.0
2018-Feb-14 23:30N 37°48' W 122°24'1 2.1
2018-Feb-14 23:01N 37°48' W 122°22'4 7.3
2018-Feb-14 22:31N 37°48' W 122°18'5 9.3
2018-Feb-14 22:00N 37°48' W 122°23'1 2.6
2018-Feb-14 21:30N 37°49' W 122°25'0 0.0
2018-Feb-14 21:00N 37°49' W 122°25'0 0.0
2018-Feb-14 20:31N 37°49' W 122°25'0 0.0
2018-Feb-14 20:01N 37°49' W 122°25'1 2.6
2018-Feb-14 19:30N 37°48' W 122°24'510.6
2018-Feb-14 19:00N 37°48' W 122°17'510.6
2018-Feb-14 18:30N 37°48' W 122°24'1 2.6
2018-Feb-14 18:00N 37°49' W 122°25'0 0.0
2018-Feb-14 17:30N 37°49' W 122°25'1 2.6
2018-Feb-14 17:01N 37°48' W 122°24'714.6
2018-Feb-14 16:30N 37°44' W 122°15'714.5
2018-Feb-14 16:00N 37°48' W 122°24'714.7
2018-Feb-14 15:30N 37°44' W 122°15'714.6
2018-Feb-14 15:00N 37°48' W 122°24'714.6
2018-Feb-14 14:30N 37°44' W 122°15'1 2.4
2018-Feb-14 14:01N 37°44' W 122°17'712.6
2018-Feb-14 13:29N 37°48' W 122°24'0 0.0
2018-Feb-14 04:46N 37°48' W 122°24'1 2.4
2018-Feb-14 04:30N 37°48' W 122°23'714.4
2018-Feb-14 04:00N 37°44' W 122°15'714.6
2018-Feb-14 03:30N 37°48' W 122°24'714.6
2018-Feb-14 03:00N 37°44' W 122°15'714.5
2018-Feb-14 02:30N 37°48' W 122°23'714.3
2018-Feb-14 02:00N 37°44' W 122°16'714.5
2018-Feb-14 01:31N 37°48' W 122°24'714.6
2018-Feb-14 01:00N 37°44' W 122°15'714.6
2018-Feb-14 00:30N 37°48' W 122°24'0 0.0
2018-Feb-14 00:00N 37°48' W 122°24'0 0.0
2018-Feb-13 23:30N 37°48' W 122°24'0 0.5
2018-Feb-13 23:00N 37°48' W 122°23'5 9.2
2018-Feb-13 22:30N 37°48' W 122°17'5 9.8
2018-Feb-13 22:00N 37°48' W 122°24'1 2.6
2018-Feb-13 21:30N 37°49' W 122°25'0 0.0
2018-Feb-13 21:00N 37°49' W 122°25'0 0.0
2018-Feb-13 20:30N 37°49' W 122°25'0 0.0
2018-Feb-13 20:00N 37°49' W 122°25'1 2.7
2018-Feb-13 19:30N 37°48' W 122°23'510.3
2018-Feb-13 19:00N 37°48' W 122°17'510.3
2018-Feb-13 18:30N 37°48' W 122°24'1 2.7
2018-Feb-13 18:00N 37°49' W 122°25'0 0.0
2018-Feb-13 17:30N 37°49' W 122°25'1 2.6
2018-Feb-13 17:00N 37°48' W 122°24'714.6
2018-Feb-13 16:30N 37°44' W 122°15'714.6
2018-Feb-13 16:00N 37°48' W 122°24'714.5
2018-Feb-13 15:30N 37°44' W 122°15'714.5
2018-Feb-13 15:00N 37°48' W 122°24'714.7
2018-Feb-13 14:30N 37°44' W 122°16'8 0.9
2018-Feb-13 04:36N 37°49' W 122°25'0 0.0
2018-Feb-13 04:30N 37°49' W 122°25'917.2
2018-Feb-13 04:00N 37°44' W 122°15'714.2
2018-Feb-13 03:31N 37°48' W 122°23'612.9
2018-Feb-13 03:01N 37°44' W 122°16'510.3
2018-Feb-13 02:31N 37°47' W 122°22'4 8.7
2018-Feb-13 02:00N 37°45' W 122°17'511.0
2018-Feb-13 01:31N 37°48' W 122°23'713.7
2018-Feb-13 01:00N 37°44' W 122°15'714.6
2018-Feb-13 00:30N 37°48' W 122°24'0 0.0
2018-Feb-13 00:01N 37°48' W 122°24'0 0.0
2018-Feb-12 23:30N 37°48' W 122°24'0 0.0
2018-Feb-12 23:00N 37°48' W 122°24'510.0
2018-Feb-12 22:31N 37°48' W 122°17'5 9.9
2018-Feb-12 22:00N 37°48' W 122°24'1 2.6
2018-Feb-12 21:30N 37°49' W 122°25'0 0.0
2018-Feb-12 21:00N 37°49' W 122°25'0 0.0
2018-Feb-12 20:30N 37°49' W 122°25'  

Dump ship's entire track history